createdAt,value
2018-08-16T00:02:11.279Z,20.60
2018-08-16T00:04:43.339Z,20.60
2018-08-16T00:09:53.669Z,20.60
2018-08-16T00:12:23.424Z,20.50
2018-08-16T00:15:10.809Z,20.50
2018-08-16T00:17:44.831Z,20.50
2018-08-16T00:23:09.155Z,20.40
2018-08-16T00:25:36.994Z,20.40
2018-08-16T00:28:05.394Z,20.40
2018-08-16T00:30:34.307Z,20.40
2018-08-16T00:33:21.530Z,20.40
2018-08-16T00:35:49.488Z,20.40
2018-08-16T00:38:17.591Z,20.40
2018-08-16T00:40:46.621Z,20.40
2018-08-16T00:43:15.369Z,20.40
2018-08-16T00:45:44.130Z,20.30
2018-08-16T00:48:13.792Z,20.30
2018-08-16T00:50:43.259Z,20.30
2018-08-16T00:53:11.923Z,20.30
2018-08-16T00:58:43.347Z,20.30
2018-08-16T01:03:52.919Z,20.30
2018-08-16T01:06:21.860Z,20.30
2018-08-16T01:08:49.835Z,20.20
2018-08-16T01:11:41.856Z,20.20
2018-08-16T01:14:14.516Z,20.30
2018-08-16T01:16:49.121Z,20.20
2018-08-16T01:19:18.471Z,20.30
2018-08-16T01:27:29.074Z,20.20
2018-08-16T01:29:57.028Z,20.20
2018-08-16T01:32:38.353Z,20.20
2018-08-16T01:35:07.139Z,20.20
2018-08-16T01:40:39.880Z,20.20
2018-08-16T01:43:08.479Z,20.20
2018-08-16T01:45:37.215Z,20.20
2018-08-16T01:48:05.059Z,20.10
2018-08-16T01:50:32.859Z,20.10
2018-08-16T01:53:01.500Z,20.10
2018-08-16T01:55:32.186Z,20.10
2018-08-16T01:58:00.712Z,20.10
2018-08-16T02:00:28.710Z,20.10
2018-08-16T02:02:58.786Z,20.10
2018-08-16T02:05:29.003Z,20.10
2018-08-16T02:08:08.841Z,20.10
2018-08-16T02:10:43.307Z,20.00
2018-08-16T02:16:11.919Z,19.90
2018-08-16T02:18:42.661Z,19.80
2018-08-16T02:21:11.304Z,19.80
2018-08-16T02:23:44.468Z,19.80
2018-08-16T02:26:12.436Z,19.80
2018-08-16T02:28:41.080Z,19.80
2018-08-16T02:31:13.167Z,19.80
2018-08-16T02:36:48.141Z,19.70
2018-08-16T02:39:30.404Z,19.70
2018-08-16T02:41:58.452Z,19.70
2018-08-16T02:47:39.699Z,19.50
2018-08-16T02:50:07.519Z,19.50
2018-08-16T02:52:36.191Z,19.50
2018-08-16T02:55:13.635Z,19.50
2018-08-16T02:57:43.553Z,19.50
2018-08-16T03:00:12.167Z,19.50
2018-08-16T03:05:44.533Z,19.50
2018-08-16T03:08:12.732Z,19.60
2018-08-16T03:10:45.915Z,19.60
2018-08-16T03:13:14.602Z,19.60
2018-08-16T03:15:44.224Z,19.60
2018-08-16T03:24:05.566Z,19.60
2018-08-16T03:26:33.662Z,19.60
2018-08-16T03:29:03.886Z,19.50
2018-08-16T03:31:32.337Z,19.60
2018-08-16T03:34:02.467Z,19.60
2018-08-16T03:36:30.611Z,19.50
2018-08-16T03:38:58.539Z,19.50
2018-08-16T03:41:26.628Z,19.50
2018-08-16T03:44:10.511Z,19.50
2018-08-16T03:46:39.118Z,19.50
2018-08-16T03:49:07.654Z,19.50
2018-08-16T03:51:44.281Z,19.50
2018-08-16T03:54:17.220Z,19.50
2018-08-16T03:56:45.264Z,19.50
2018-08-16T04:01:58.196Z,19.50
2018-08-16T04:04:26.047Z,19.50
2018-08-16T04:06:54.155Z,19.50
2018-08-16T04:09:21.896Z,19.50
2018-08-16T04:11:50.052Z,19.50
2018-08-16T04:14:17.863Z,19.50
2018-08-16T04:19:38.583Z,19.40
2018-08-16T04:22:06.339Z,19.40
2018-08-16T04:24:42.304Z,19.30
2018-08-16T04:27:10.182Z,19.40
2018-08-16T04:29:37.916Z,19.40
2018-08-16T04:32:05.937Z,19.40
2018-08-16T04:34:41.937Z,19.30
2018-08-16T04:37:10.584Z,19.30
2018-08-16T04:39:42.336Z,19.30
2018-08-16T04:42:10.753Z,19.30
2018-08-16T04:44:40.170Z,19.20
2018-08-16T04:47:08.522Z,19.20
2018-08-16T04:49:39.711Z,19.20
2018-08-16T04:52:08.155Z,19.30
2018-08-16T04:54:36.350Z,19.30
2018-08-16T04:57:04.434Z,19.20
2018-08-16T04:59:32.295Z,19.20
2018-08-16T05:02:12.473Z,19.20
2018-08-16T05:04:40.194Z,19.30
2018-08-16T05:07:09.777Z,19.20
2018-08-16T05:09:38.628Z,19.20
2018-08-16T05:12:11.533Z,19.10
2018-08-16T05:17:20.991Z,19.20
2018-08-16T05:19:49.798Z,19.20
2018-08-16T05:22:23.293Z,19.20
2018-08-16T05:24:51.265Z,19.20
2018-08-16T05:27:18.993Z,19.30
2018-08-16T05:29:46.979Z,19.30
2018-08-16T05:32:15.030Z,19.30
2018-08-16T05:34:46.343Z,19.30
2018-08-16T05:37:16.351Z,19.30
2018-08-16T05:39:56.915Z,19.40
2018-08-16T05:42:27.504Z,19.40
2018-08-16T05:44:59.945Z,19.40
2018-08-16T05:47:27.923Z,19.30
2018-08-16T05:49:56.382Z,19.30
2018-08-16T05:52:24.479Z,19.40
2018-08-16T05:55:12.418Z,19.40
2018-08-16T05:57:40.836Z,19.30
2018-08-16T06:00:13.480Z,19.40
2018-08-16T06:05:37.661Z,19.50
2018-08-16T06:08:06.617Z,19.50
2018-08-16T06:13:29.475Z,19.50
2018-08-16T06:19:00.425Z,19.60
2018-08-16T06:24:31.257Z,19.60
2018-08-16T06:26:59.425Z,19.60
2018-08-16T06:29:28.493Z,19.60
2018-08-16T06:35:00.584Z,19.70
2018-08-16T06:37:28.507Z,19.80
2018-08-16T06:40:09.793Z,19.80
2018-08-16T06:42:39.812Z,19.90
2018-08-16T06:45:10.105Z,19.90
2018-08-16T06:47:37.932Z,19.90
2018-08-16T06:50:08.211Z,20.00
2018-08-16T06:52:36.483Z,20.00
2018-08-16T06:55:05.761Z,20.10
2018-08-16T06:57:34.200Z,20.10
2018-08-16T07:00:02.091Z,20.10
2018-08-16T07:02:36.355Z,20.10
2018-08-16T07:11:00.559Z,20.20
2018-08-16T07:13:28.399Z,20.30
2018-08-16T07:15:56.149Z,20.30
2018-08-16T07:18:32.578Z,20.40
2018-08-16T07:21:00.476Z,20.50
2018-08-16T07:23:40.087Z,20.50
2018-08-16T07:26:07.927Z,20.60
2018-08-16T07:28:36.191Z,20.60
2018-08-16T07:31:13.268Z,20.60
2018-08-16T07:39:41.189Z,20.80
2018-08-16T07:42:09.463Z,20.80
2018-08-16T07:44:37.491Z,20.90
2018-08-16T07:50:11.847Z,20.90
2018-08-16T07:58:36.787Z,21.10
2018-08-16T08:01:05.050Z,21.20
2018-08-16T08:03:34.011Z,21.20
2018-08-16T08:06:12.333Z,21.30
2018-08-16T08:11:48.601Z,21.40
2018-08-16T08:17:13.058Z,21.50
2018-08-16T08:19:43.009Z,21.50
2018-08-16T08:22:12.489Z,21.50
2018-08-16T08:24:40.482Z,21.60
2018-08-16T08:27:08.775Z,21.60
2018-08-16T08:29:37.183Z,21.70
2018-08-16T08:32:09.609Z,21.70
2018-08-16T08:34:38.637Z,21.80
2018-08-16T08:40:13.008Z,21.90
2018-08-16T08:42:57.716Z,21.90
2018-08-16T08:45:25.856Z,22.00
2018-08-16T08:47:56.144Z,22.00
2018-08-16T08:50:24.176Z,22.10
2018-08-16T08:52:51.908Z,22.10
2018-08-16T08:55:30.961Z,22.20
2018-08-16T09:03:52.655Z,22.30
2018-08-16T09:06:27.340Z,22.40
2018-08-16T09:08:55.484Z,22.40
2018-08-16T09:11:34.267Z,22.40
2018-08-16T09:14:14.322Z,22.50
2018-08-16T09:16:42.166Z,22.50
2018-08-16T09:22:12.594Z,22.60
2018-08-16T09:24:40.349Z,22.70
2018-08-16T09:27:08.210Z,22.80
2018-08-16T09:31:48.331Z,22.80
2018-08-16T09:34:19.940Z,22.80
2018-08-16T09:36:47.709Z,22.90
2018-08-16T09:39:15.495Z,23.00
2018-08-16T09:41:43.272Z,23.10
2018-08-16T09:44:12.855Z,23.10
2018-08-16T09:46:53.767Z,23.20
2018-08-16T09:49:21.394Z,23.30
2018-08-16T09:51:49.187Z,23.30
2018-08-16T09:54:16.916Z,23.30
2018-08-16T09:56:45.483Z,23.40
2018-08-16T09:59:14.412Z,23.40
2018-08-16T10:01:42.565Z,23.50
2018-08-16T10:04:10.559Z,23.60
2018-08-16T10:06:41.551Z,23.70
2018-08-16T10:09:13.570Z,23.70
2018-08-16T10:11:41.419Z,23.70
2018-08-16T10:14:09.127Z,23.80
2018-08-16T10:16:37.044Z,23.80
2018-08-16T10:19:05.037Z,23.80
2018-08-16T10:21:39.805Z,23.90
2018-08-16T10:24:08.101Z,23.90
2018-08-16T10:26:35.792Z,24.00
2018-08-16T10:29:03.675Z,24.10
2018-08-16T10:31:32.071Z,24.20
2018-08-16T10:34:00.819Z,24.20
2018-08-16T10:36:28.675Z,24.30
2018-08-16T10:38:58.915Z,24.30
2018-08-16T10:41:27.138Z,24.30
2018-08-16T10:43:54.966Z,24.40
2018-08-16T10:46:23.873Z,24.40
2018-08-16T10:48:52.019Z,24.50
2018-08-16T10:51:20.445Z,24.60
2018-08-16T10:53:48.219Z,24.60
2018-08-16T10:56:16.297Z,24.70
2018-08-16T10:58:44.568Z,24.80
2018-08-16T11:01:12.419Z,24.80
2018-08-16T11:03:40.346Z,24.80
2018-08-16T11:06:08.267Z,24.90
2018-08-16T11:08:36.274Z,24.90
2018-08-16T11:11:04.157Z,25.00
2018-08-16T11:13:31.996Z,25.10
2018-08-16T11:15:59.632Z,25.20
2018-08-16T11:18:28.655Z,25.30
2018-08-16T11:20:56.399Z,25.30
2018-08-16T11:23:24.067Z,25.30
2018-08-16T11:25:51.752Z,25.30
2018-08-16T11:28:20.140Z,25.30
2018-08-16T11:30:47.953Z,25.30
2018-08-16T11:33:16.383Z,25.40
2018-08-16T11:35:44.989Z,25.40
2018-08-16T11:38:12.959Z,25.50
2018-08-16T11:40:41.317Z,25.60
2018-08-16T11:43:09.060Z,25.70
2018-08-16T11:45:46.702Z,25.70
2018-08-16T11:48:22.892Z,25.70
2018-08-16T11:50:50.627Z,25.70
2018-08-16T11:53:19.015Z,25.80
2018-08-16T11:55:52.213Z,25.90
2018-08-16T11:58:21.160Z,26.10
2018-08-16T12:00:49.339Z,26.00
2018-08-16T12:03:27.069Z,26.10
2018-08-16T12:06:09.936Z,26.20
2018-08-16T12:08:50.734Z,26.30
2018-08-16T12:11:18.637Z,26.60
2018-08-16T12:13:47.509Z,26.60
2018-08-16T12:16:16.251Z,26.70
2018-08-16T12:18:44.584Z,26.70
2018-08-16T12:21:12.455Z,26.90
2018-08-16T12:23:48.402Z,27.10
2018-08-16T12:26:16.094Z,27.30
2018-08-16T12:28:59.616Z,27.40
2018-08-16T12:31:27.968Z,27.60
2018-08-16T12:33:55.973Z,27.80
2018-08-16T12:36:23.590Z,28.00
2018-08-16T12:38:56.400Z,28.20
2018-08-16T12:41:32.812Z,28.60
2018-08-16T12:44:00.434Z,28.80
2018-08-16T12:46:29.542Z,29.10
2018-08-16T12:48:59.799Z,29.40
2018-08-16T12:51:30.957Z,29.60
2018-08-16T12:53:58.828Z,29.70
2018-08-16T12:56:27.110Z,30.20
2018-08-16T12:58:55.550Z,30.50
2018-08-16T13:01:23.317Z,30.80
2018-08-16T13:03:52.305Z,30.90
2018-08-16T13:06:20.320Z,30.90
2018-08-16T13:08:48.797Z,30.90
2018-08-16T13:11:16.673Z,30.70
2018-08-16T13:13:44.580Z,30.60
2018-08-16T13:16:12.328Z,30.40
2018-08-16T13:18:40.069Z,30.30
2018-08-16T13:21:08.570Z,30.00
2018-08-16T13:23:41.005Z,29.90
2018-08-16T13:26:08.687Z,29.70
2018-08-16T13:28:36.586Z,29.60
2018-08-16T13:31:04.286Z,29.50
2018-08-16T13:33:32.770Z,29.30
2018-08-16T13:36:01.353Z,29.20
2018-08-16T13:38:29.132Z,29.10
2018-08-16T13:40:57.235Z,29.10
2018-08-16T13:43:24.882Z,29.10
2018-08-16T13:45:53.816Z,29.00
2018-08-16T13:48:22.562Z,29.00
2018-08-16T13:50:50.255Z,28.90
2018-08-16T13:53:18.049Z,28.90
2018-08-16T13:55:45.711Z,28.90
2018-08-16T13:58:20.140Z,28.80
2018-08-16T14:00:47.704Z,28.80
2018-08-16T14:03:15.895Z,28.80
2018-08-16T14:05:43.665Z,28.70
2018-08-16T14:08:11.321Z,28.70
2018-08-16T14:10:39.231Z,28.70
2018-08-16T14:13:08.081Z,28.60
2018-08-16T14:15:36.038Z,28.60
2018-08-16T14:18:04.119Z,28.60
2018-08-16T14:20:32.111Z,28.60
2018-08-16T14:23:00.728Z,28.50
2018-08-16T14:25:28.656Z,28.60
2018-08-16T14:27:56.736Z,28.60
2018-08-16T14:30:24.542Z,28.60
2018-08-16T14:32:52.448Z,28.60
2018-08-16T14:35:20.360Z,28.50
2018-08-16T14:37:47.967Z,28.60
2018-08-16T14:40:15.796Z,28.60
2018-08-16T14:42:44.431Z,28.60
2018-08-16T14:45:12.101Z,28.50
2018-08-16T14:47:40.169Z,28.50
2018-08-16T14:50:07.741Z,28.50
2018-08-16T14:52:35.480Z,28.50
2018-08-16T14:55:03.850Z,28.50
2018-08-16T14:57:31.727Z,28.50
2018-08-16T15:00:00.672Z,28.60
2018-08-16T15:02:28.650Z,28.60
2018-08-16T15:04:56.530Z,28.60
2018-08-16T15:07:24.875Z,28.60
2018-08-16T15:09:52.734Z,28.50
2018-08-16T15:12:20.583Z,28.60
2018-08-16T15:14:48.334Z,28.60
2018-08-16T15:17:16.194Z,28.60
2018-08-16T15:19:44.007Z,28.50
2018-08-16T15:22:13.148Z,28.60
2018-08-16T15:24:41.181Z,28.60
2018-08-16T15:27:08.885Z,28.60
2018-08-16T15:29:36.544Z,28.50
2018-08-16T15:32:04.503Z,28.60
2018-08-16T15:34:32.162Z,28.60
2018-08-16T15:37:00.506Z,28.50
2018-08-16T15:39:28.159Z,28.50
2018-08-16T15:41:55.920Z,28.60
2018-08-16T15:44:24.090Z,28.50
2018-08-16T15:46:51.762Z,28.60
2018-08-16T15:49:19.574Z,28.50
2018-08-16T15:51:47.231Z,28.60
2018-08-16T15:54:15.199Z,28.50
2018-08-16T15:56:43.545Z,28.50
2018-08-16T15:59:11.649Z,28.50
2018-08-16T16:01:39.331Z,28.50
2018-08-16T16:04:07.758Z,28.50
2018-08-16T16:06:35.522Z,28.50
2018-08-16T16:09:04.662Z,28.50
2018-08-16T16:11:32.580Z,28.50
2018-08-16T16:14:00.974Z,28.40
2018-08-16T16:16:29.087Z,28.40
2018-08-16T16:18:57.362Z,28.40
2018-08-16T16:21:26.059Z,28.50
2018-08-16T16:23:54.858Z,28.50
2018-08-16T16:26:22.673Z,28.60
2018-08-16T16:28:50.277Z,28.60
2018-08-16T16:31:17.919Z,28.50
2018-08-16T16:33:45.655Z,28.60
2018-08-16T16:36:13.381Z,28.50
2018-08-16T16:38:41.294Z,28.60
2018-08-16T16:41:10.138Z,28.60
2018-08-16T16:43:45.891Z,28.60
2018-08-16T16:46:25.887Z,28.50
2018-08-16T16:48:53.997Z,28.50
2018-08-16T16:51:23.863Z,28.50
2018-08-16T16:53:51.664Z,28.50
2018-08-16T16:56:19.917Z,28.50
2018-08-16T16:58:47.788Z,28.50
2018-08-16T17:01:17.546Z,28.50
2018-08-16T17:03:45.285Z,28.50
2018-08-16T17:06:13.076Z,28.50
2018-08-16T17:08:40.977Z,28.50
2018-08-16T17:11:09.935Z,28.50
2018-08-16T17:13:39.823Z,28.60
2018-08-16T17:16:07.611Z,28.60
2018-08-16T17:18:35.349Z,28.60
2018-08-16T17:21:04.810Z,28.80
2018-08-16T17:23:32.679Z,28.90
2018-08-16T17:26:01.448Z,29.10
2018-08-16T17:28:29.226Z,29.20
2018-08-16T17:30:57.367Z,29.50
2018-08-16T17:33:27.311Z,29.60
2018-08-16T17:35:55.803Z,29.70
2018-08-16T17:38:26.154Z,29.70
2018-08-16T17:40:54.435Z,29.80
2018-08-16T17:43:23.118Z,30.00
2018-08-16T17:45:51.150Z,30.00
2018-08-16T17:48:19.101Z,30.00
2018-08-16T17:50:47.105Z,30.00
2018-08-16T17:53:14.972Z,29.90
2018-08-16T17:55:42.992Z,29.80
2018-08-16T17:58:10.751Z,29.70
2018-08-16T18:00:43.839Z,29.60
2018-08-16T18:03:11.531Z,29.60
2018-08-16T18:05:39.228Z,29.50
2018-08-16T18:08:08.180Z,29.40
2018-08-16T18:10:40.692Z,29.40
2018-08-16T18:13:09.597Z,29.30
2018-08-16T18:15:37.356Z,29.20
2018-08-16T18:18:07.565Z,29.20
2018-08-16T18:20:35.576Z,29.10
2018-08-16T18:23:03.392Z,29.00
2018-08-16T18:25:31.178Z,29.00
2018-08-16T18:28:11.408Z,28.90
2018-08-16T18:30:39.296Z,28.80
2018-08-16T18:33:07.009Z,28.80
2018-08-16T18:35:34.729Z,28.70
2018-08-16T18:38:02.530Z,28.60
2018-08-16T18:40:31.990Z,28.50
2018-08-16T18:43:01.283Z,28.50
2018-08-16T18:45:29.096Z,28.40
2018-08-16T18:47:57.008Z,28.40
2018-08-16T18:50:27.609Z,28.30
2018-08-16T18:52:57.113Z,28.20
2018-08-16T18:55:24.987Z,28.10
2018-08-16T18:57:58.312Z,28.10
2018-08-16T19:00:26.203Z,28.00
2018-08-16T19:02:55.096Z,28.00
2018-08-16T19:05:24.440Z,27.90
2018-08-16T19:07:52.257Z,27.80
2018-08-16T19:10:20.578Z,27.80
2018-08-16T19:12:48.653Z,27.70
2018-08-16T19:15:16.629Z,27.70
2018-08-16T19:17:46.319Z,27.50
2018-08-16T19:20:14.247Z,27.50
2018-08-16T19:22:42.717Z,27.40
2018-08-16T19:25:11.070Z,27.40
2018-08-16T19:27:49.011Z,27.30
2018-08-16T19:30:17.483Z,27.30
2018-08-16T19:32:45.339Z,27.30
2018-08-16T19:35:13.203Z,27.20
2018-08-16T19:37:44.127Z,27.10
2018-08-16T19:40:12.113Z,27.10
2018-08-16T19:42:39.798Z,27.00
2018-08-16T19:45:48.473Z,27.00
2018-08-16T19:48:16.243Z,26.90
2018-08-16T19:50:44.027Z,26.90
2018-08-16T19:53:20.681Z,26.70
2018-08-16T19:55:50.574Z,26.70
2018-08-16T19:58:20.123Z,26.70
2018-08-16T20:00:49.576Z,26.60
2018-08-16T20:03:21.656Z,26.60
2018-08-16T20:05:49.804Z,26.50
2018-08-16T20:08:17.742Z,26.40
2018-08-16T20:10:46.003Z,26.40
2018-08-16T20:13:13.904Z,26.40
2018-08-16T20:15:41.526Z,26.30
2018-08-16T20:18:09.745Z,26.30
2018-08-16T20:20:37.407Z,26.30
2018-08-16T20:23:06.249Z,26.20
2018-08-16T20:25:34.493Z,26.10
2018-08-16T20:28:03.943Z,26.00
2018-08-16T20:30:31.833Z,25.90
2018-08-16T20:33:00.628Z,25.80
2018-08-16T20:35:28.495Z,25.80
2018-08-16T20:37:57.495Z,25.80
2018-08-16T20:40:25.429Z,25.80
2018-08-16T20:42:53.310Z,25.70
2018-08-16T20:45:22.498Z,25.70
2018-08-16T20:47:50.318Z,25.60
2018-08-16T20:50:18.118Z,25.60
2018-08-16T20:52:45.834Z,25.60
2018-08-16T20:55:14.507Z,25.50
2018-08-16T20:57:42.623Z,25.40
2018-08-16T21:00:11.104Z,25.40
2018-08-16T21:02:39.163Z,25.40
2018-08-16T21:05:07.635Z,25.30
2018-08-16T21:07:35.465Z,25.30
2018-08-16T21:10:03.776Z,25.30
2018-08-16T21:12:31.684Z,25.30
2018-08-16T21:14:59.403Z,25.10
2018-08-16T21:17:27.800Z,25.20
2018-08-16T21:19:56.062Z,25.10
2018-08-16T21:22:23.841Z,25.00
2018-08-16T21:24:52.085Z,25.00
2018-08-16T21:27:20.162Z,24.90
2018-08-16T21:29:49.167Z,24.90
2018-08-16T21:32:17.072Z,24.90
2018-08-16T21:34:44.762Z,24.90
2018-08-16T21:37:12.542Z,24.90
2018-08-16T21:39:43.489Z,24.80
2018-08-16T21:42:11.373Z,24.80
2018-08-16T21:44:40.158Z,24.80
2018-08-16T21:47:10.737Z,24.70
2018-08-16T21:49:38.836Z,24.70
2018-08-16T21:52:08.719Z,24.70
2018-08-16T21:54:41.233Z,24.60
2018-08-16T21:57:09.202Z,24.60
2018-08-16T21:59:37.054Z,24.50
2018-08-16T22:02:04.940Z,24.40
2018-08-16T22:04:32.964Z,24.40
2018-08-16T22:07:12.680Z,24.40
2018-08-16T22:09:43.547Z,24.40
2018-08-16T22:15:23.760Z,24.30
2018-08-16T22:17:53.381Z,24.30
2018-08-16T22:20:21.722Z,24.20
2018-08-16T22:31:50.112Z,23.90
2018-08-16T22:34:21.613Z,23.90
2018-08-16T22:36:50.391Z,23.90
2018-08-16T22:39:19.409Z,23.90
2018-08-16T22:41:48.892Z,23.80
2018-08-16T22:44:19.035Z,23.80
2018-08-16T22:46:47.593Z,23.80
2018-08-16T22:49:23.636Z,23.80
2018-08-16T22:51:52.166Z,23.80
2018-08-16T22:54:20.401Z,23.80
2018-08-16T22:57:14.150Z,23.70
2018-08-16T22:59:42.670Z,23.70
2018-08-16T23:02:17.232Z,23.60
2018-08-16T23:04:45.885Z,23.60
2018-08-16T23:07:15.963Z,23.50
2018-08-16T23:09:52.426Z,23.50
2018-08-16T23:12:22.787Z,23.40
2018-08-16T23:14:50.866Z,23.40
2018-08-16T23:17:19.712Z,23.40
2018-08-16T23:19:59.842Z,23.30
2018-08-16T23:22:28.492Z,23.30
2018-08-16T23:24:57.616Z,23.30
2018-08-16T23:27:29.719Z,23.30
2018-08-16T23:29:58.563Z,23.20
2018-08-16T23:32:27.172Z,23.20
2018-08-16T23:34:55.278Z,23.10
2018-08-16T23:37:23.620Z,23.10
2018-08-16T23:39:52.256Z,23.10
2018-08-16T23:42:20.785Z,23.00
2018-08-16T23:44:49.772Z,23.00
2018-08-16T23:47:24.043Z,23.00
2018-08-16T23:49:52.476Z,23.00
2018-08-16T23:52:22.948Z,23.00
2018-08-16T23:54:51.623Z,22.90
2018-08-16T23:57:20.268Z,22.90
2018-08-16T23:59:48.936Z,22.90
